createdAt,value
2023-03-11T00:00:18.096Z,1.07
2023-03-11T00:02:49.749Z,0.80
2023-03-11T00:05:25.657Z,0.80
2023-03-11T00:07:57.308Z,1.00
2023-03-11T00:10:30.474Z,1.03
2023-03-11T00:13:01.669Z,0.90
2023-03-11T00:15:33.205Z,1.10
2023-03-11T00:18:04.723Z,1.00
2023-03-11T00:20:38.554Z,1.10
2023-03-11T00:23:10.591Z,0.83
2023-03-11T00:25:42.330Z,1.00
2023-03-11T00:28:13.050Z,1.07
2023-03-11T00:30:46.136Z,0.70
2023-03-11T00:33:18.236Z,0.70
2023-03-11T00:35:50.626Z,1.00
2023-03-11T00:38:22.410Z,0.80
2023-03-11T00:40:53.622Z,0.90
2023-03-11T00:43:24.445Z,1.00
2023-03-11T00:45:55.247Z,1.17
2023-03-11T00:48:26.958Z,1.00
2023-03-11T00:50:59.442Z,1.20
2023-03-11T00:53:30.552Z,1.40
2023-03-11T00:56:02.419Z,0.93
2023-03-11T00:58:34.036Z,1.20
2023-03-11T01:01:09.432Z,1.10
2023-03-11T01:03:40.822Z,1.03
2023-03-11T01:06:14.387Z,1.10
2023-03-11T01:08:45.324Z,1.20
2023-03-11T01:11:17.297Z,1.20
2023-03-11T01:13:48.651Z,1.30
2023-03-11T01:16:19.910Z,1.20
2023-03-11T01:18:51.410Z,1.70
2023-03-11T01:21:24.048Z,1.60
2023-03-11T01:23:55.606Z,1.40
2023-03-11T01:26:26.804Z,1.50
2023-03-11T01:28:58.670Z,1.33
2023-03-11T01:31:29.968Z,1.60
2023-03-11T01:34:01.408Z,1.47
2023-03-11T01:36:35.011Z,1.57
2023-03-11T01:39:06.450Z,1.67
2023-03-11T01:41:38.647Z,1.47
2023-03-11T01:44:10.108Z,1.10
2023-03-11T01:47:03.801Z,1.10
2023-03-11T01:49:35.280Z,1.30
2023-03-11T01:52:11.747Z,1.50
2023-03-11T01:54:45.344Z,1.50
2023-03-11T01:57:17.886Z,1.30
2023-03-11T01:59:53.933Z,1.50
2023-03-11T02:02:29.377Z,1.30
2023-03-11T02:05:03.880Z,1.47
2023-03-11T02:07:40.556Z,1.67
2023-03-11T02:10:14.575Z,1.30
2023-03-11T02:12:47.337Z,1.50
2023-03-11T02:15:20.238Z,2.07
2023-03-11T02:17:51.811Z,1.70
2023-03-11T02:20:31.810Z,1.60
2023-03-11T02:23:05.714Z,1.77
2023-03-11T02:25:43.927Z,2.03
2023-03-11T02:28:23.211Z,1.93
2023-03-11T02:30:55.415Z,2.40
2023-03-11T02:33:30.223Z,2.03
2023-03-11T02:36:01.573Z,1.93
2023-03-11T02:38:32.984Z,2.10
2023-03-11T02:41:05.167Z,2.70
2023-03-11T02:43:43.487Z,2.40
2023-03-11T02:46:17.034Z,2.63
2023-03-11T02:48:49.143Z,3.20
2023-03-11T02:51:20.119Z,2.40
2023-03-11T02:53:53.861Z,2.30
2023-03-11T02:56:25.325Z,3.00
2023-03-11T02:58:58.147Z,2.47
2023-03-11T03:01:29.571Z,2.57
2023-03-11T03:04:01.634Z,2.47
2023-03-11T03:06:33.517Z,2.63
2023-03-11T03:09:04.934Z,2.30
2023-03-11T03:11:36.375Z,3.10
2023-03-11T03:14:10.062Z,3.23
2023-03-11T03:16:41.037Z,3.50
2023-03-11T03:19:12.182Z,4.00
2023-03-11T03:21:44.271Z,4.30
2023-03-11T03:24:15.224Z,3.80
2023-03-11T03:26:46.225Z,3.20
2023-03-11T03:29:19.823Z,3.47
2023-03-11T03:31:51.096Z,4.33
2023-03-11T03:34:22.491Z,4.07
2023-03-11T03:36:53.657Z,3.83
2023-03-11T03:39:24.575Z,2.60
2023-03-11T03:41:55.804Z,2.20
2023-03-11T03:44:29.210Z,1.50
2023-03-11T03:47:00.663Z,1.23
2023-03-11T03:49:32.139Z,0.87
2023-03-11T03:52:02.826Z,1.10
2023-03-11T03:54:34.909Z,1.10
2023-03-11T03:57:06.141Z,1.33
2023-03-11T03:59:40.217Z,0.90
2023-03-11T04:02:11.996Z,1.37
2023-03-11T04:04:43.316Z,0.60
2023-03-11T04:07:14.816Z,0.83
2023-03-11T04:09:48.615Z,0.53
2023-03-11T04:12:20.634Z,0.40
2023-03-11T04:14:54.437Z,0.57
2023-03-11T04:17:25.531Z,0.70
2023-03-11T04:19:57.040Z,0.50
2023-03-11T04:22:28.700Z,0.47
2023-03-11T04:25:00.961Z,0.80
2023-03-11T04:27:32.184Z,0.80
2023-03-11T04:30:06.304Z,0.40
2023-03-11T04:32:38.051Z,0.60
2023-03-11T04:35:10.511Z,1.10
2023-03-11T04:37:42.496Z,0.70
2023-03-11T04:40:16.124Z,0.90
2023-03-11T04:42:47.649Z,0.70
2023-03-11T04:45:21.371Z,0.80
2023-03-11T04:47:53.487Z,0.80
2023-03-11T04:50:26.014Z,0.83
2023-03-11T04:52:57.714Z,0.70
2023-03-11T04:55:28.888Z,0.77
2023-03-11T04:58:00.554Z,0.73
2023-03-11T05:00:34.616Z,0.60
2023-03-11T05:03:06.189Z,0.60
2023-03-11T05:05:38.181Z,0.70
2023-03-11T05:08:10.238Z,0.60
2023-03-11T05:10:43.033Z,0.57
2023-03-11T05:13:15.106Z,0.50
2023-03-11T05:15:49.552Z,0.70
2023-03-11T05:18:21.884Z,0.70
2023-03-11T05:20:54.513Z,0.60
2023-03-11T05:23:26.096Z,0.60
2023-03-11T05:25:57.566Z,0.40
2023-03-11T05:28:29.057Z,0.80
2023-03-11T05:31:04.733Z,0.60
2023-03-11T05:33:37.387Z,0.90
2023-03-11T05:36:10.728Z,0.90
2023-03-11T05:38:42.283Z,0.70
2023-03-11T05:41:13.724Z,0.67
2023-03-11T05:43:45.391Z,1.00
2023-03-11T05:46:19.014Z,0.60
2023-03-11T05:48:51.162Z,0.90
2023-03-11T05:51:22.647Z,1.07
2023-03-11T05:53:54.139Z,1.00
2023-03-11T05:56:27.046Z,1.20
2023-03-11T05:59:01.488Z,1.27
2023-03-11T06:01:35.894Z,1.07
2023-03-11T06:04:08.118Z,1.20
2023-03-11T06:06:40.491Z,1.23
2023-03-11T06:09:14.430Z,1.43
2023-03-11T06:11:46.448Z,1.00
2023-03-11T06:14:19.724Z,1.40
2023-03-11T06:16:54.486Z,1.37
2023-03-11T06:19:25.880Z,1.40
2023-03-11T06:21:58.261Z,1.60
2023-03-11T06:24:29.775Z,1.90
2023-03-11T06:27:01.500Z,2.27
2023-03-11T06:29:33.546Z,2.20
2023-03-11T06:32:09.580Z,2.23
2023-03-11T06:34:41.430Z,1.60
2023-03-11T06:37:12.857Z,1.50
2023-03-11T06:39:44.360Z,1.60
2023-03-11T06:42:16.109Z,1.40
2023-03-11T06:44:47.534Z,1.40
2023-03-11T06:47:21.210Z,1.40
2023-03-11T06:49:53.543Z,1.27
2023-03-11T06:52:25.772Z,1.33
2023-03-11T06:54:58.048Z,0.97
2023-03-11T06:57:32.440Z,1.30
2023-03-11T07:00:04.315Z,1.60
2023-03-11T07:02:38.611Z,1.60
2023-03-11T07:05:11.171Z,1.60
2023-03-11T07:07:44.176Z,1.40
2023-03-11T07:10:16.774Z,1.80
2023-03-11T07:12:49.441Z,1.37
2023-03-11T07:15:21.174Z,1.50
2023-03-11T07:17:55.974Z,1.20
2023-03-11T07:20:28.575Z,1.67
2023-03-11T07:23:03.000Z,1.47
2023-03-11T07:25:34.376Z,1.60
2023-03-11T07:28:06.123Z,1.23
2023-03-11T07:30:37.319Z,1.13
2023-03-11T07:33:12.495Z,1.60
2023-03-11T07:35:44.097Z,1.47
2023-03-11T07:38:15.889Z,1.27
2023-03-11T07:40:48.404Z,1.10
2023-03-11T07:43:21.005Z,1.37
2023-03-11T07:45:52.642Z,1.20
2023-03-11T07:48:26.197Z,1.30
2023-03-11T07:51:06.746Z,1.70
2023-03-11T07:53:39.718Z,1.50
2023-03-11T07:56:12.366Z,1.27
2023-03-11T07:58:45.706Z,1.20
2023-03-11T08:01:20.092Z,1.00
2023-03-11T08:03:58.080Z,1.00
2023-03-11T08:06:32.567Z,1.77
2023-03-11T08:09:05.770Z,1.27
2023-03-11T08:11:37.308Z,0.93
2023-03-11T08:14:09.814Z,1.07
2023-03-11T08:16:43.120Z,0.90
2023-03-11T08:19:19.079Z,1.13
2023-03-11T08:21:50.772Z,0.83
2023-03-11T08:24:22.313Z,1.10
2023-03-11T08:26:54.169Z,1.10
2023-03-11T08:29:26.542Z,0.90
2023-03-11T08:31:58.645Z,1.03
2023-03-11T08:34:32.141Z,0.93
2023-03-11T08:37:03.634Z,1.07
2023-03-11T08:39:36.309Z,1.07
2023-03-11T08:42:10.157Z,0.80
2023-03-11T08:44:44.316Z,0.90
2023-03-11T08:47:17.320Z,0.80
2023-03-11T08:49:50.957Z,1.37
2023-03-11T08:52:22.385Z,0.90
2023-03-11T08:54:54.235Z,1.17
2023-03-11T08:57:26.007Z,1.20
2023-03-11T08:59:59.276Z,0.90
2023-03-11T09:02:33.076Z,1.20
2023-03-11T09:05:07.768Z,1.10
2023-03-11T09:07:39.974Z,0.80
2023-03-11T09:10:12.505Z,1.13
2023-03-11T09:12:44.396Z,1.00
2023-03-11T09:15:15.835Z,1.20
2023-03-11T09:17:47.770Z,1.30
2023-03-11T09:20:22.492Z,1.10
2023-03-11T09:22:54.006Z,0.90
2023-03-11T09:25:25.707Z,1.10
2023-03-11T09:27:57.187Z,1.00
2023-03-11T09:30:28.728Z,1.00
2023-03-11T09:33:00.316Z,1.00
2023-03-11T09:35:34.169Z,0.97
2023-03-11T09:38:05.954Z,1.30
2023-03-11T09:41:01.114Z,0.70
2023-03-11T09:43:46.982Z,1.00
2023-03-11T09:46:44.096Z,0.90
2023-03-11T09:49:23.430Z,0.60
2023-03-11T09:52:05.655Z,0.77
2023-03-11T09:54:42.980Z,0.83
2023-03-11T09:57:19.839Z,0.80
2023-03-11T09:59:52.244Z,0.70
2023-03-11T10:02:27.692Z,0.93
2023-03-11T10:05:02.578Z,0.60
2023-03-11T10:07:42.892Z,1.03
2023-03-11T10:10:18.386Z,0.87
2023-03-11T10:12:59.160Z,0.80
2023-03-11T10:15:49.487Z,0.90
2023-03-11T10:18:46.441Z,0.90
2023-03-11T10:21:27.246Z,0.90
2023-03-11T10:24:15.204Z,1.40
2023-03-11T10:26:50.372Z,1.20
2023-03-11T10:29:27.063Z,1.00
2023-03-11T10:32:05.568Z,1.20
2023-03-11T10:34:41.294Z,1.30
2023-03-11T10:37:19.794Z,1.00
2023-03-11T10:39:54.969Z,0.90
2023-03-11T10:42:31.016Z,0.93
2023-03-11T10:45:02.437Z,0.80
2023-03-11T10:47:34.012Z,0.73
2023-03-11T10:50:06.435Z,0.77
2023-03-11T10:52:47.774Z,0.80
2023-03-11T10:55:22.932Z,0.90
2023-03-11T10:57:54.997Z,1.03
2023-03-11T11:00:34.079Z,0.90
2023-03-11T11:03:09.805Z,1.17
2023-03-11T11:05:41.725Z,1.20
2023-03-11T11:08:18.700Z,1.00
2023-03-11T11:11:07.123Z,1.20
2023-03-11T11:13:39.112Z,0.90
2023-03-11T11:16:23.391Z,0.93
2023-03-11T11:18:59.087Z,1.00
2023-03-11T11:21:37.015Z,1.40
2023-03-11T11:24:19.704Z,0.97
2023-03-11T11:27:18.985Z,1.00
2023-03-11T11:29:51.892Z,1.00
2023-03-11T11:32:29.199Z,1.00
2023-03-11T11:35:08.844Z,1.33
2023-03-11T11:37:43.175Z,1.27
2023-03-11T11:40:31.145Z,1.30
2023-03-11T11:43:09.698Z,1.57
2023-03-11T11:45:46.177Z,1.93
2023-03-11T11:48:22.828Z,1.30
2023-03-11T11:50:58.043Z,1.17
2023-03-11T11:53:38.418Z,1.30
2023-03-11T11:56:11.511Z,1.40
2023-03-11T11:58:45.266Z,1.20
2023-03-11T12:01:23.184Z,1.60
2023-03-11T12:04:21.436Z,1.50
2023-03-11T12:07:03.455Z,1.27
2023-03-11T12:09:39.873Z,1.60
2023-03-11T12:12:20.081Z,1.40
2023-03-11T12:15:00.910Z,1.40
2023-03-11T12:17:35.990Z,1.30
2023-03-11T12:20:15.551Z,1.20
2023-03-11T12:23:08.012Z,1.50
2023-03-11T12:25:43.660Z,1.10
2023-03-11T12:28:24.183Z,1.63
2023-03-11T12:31:02.309Z,1.47
2023-03-11T12:33:39.744Z,1.37
2023-03-11T12:36:25.144Z,1.13
2023-03-11T12:38:58.385Z,1.10
2023-03-11T12:41:41.089Z,1.27
2023-03-11T12:44:29.858Z,1.33
2023-03-11T12:47:24.841Z,1.73
2023-03-11T12:49:58.296Z,1.47
2023-03-11T12:52:31.984Z,1.27
2023-03-11T12:55:32.311Z,1.33
2023-03-11T12:58:28.329Z,1.10
2023-03-11T13:01:17.778Z,1.10
2023-03-11T13:04:08.750Z,1.10
2023-03-11T13:07:06.332Z,1.10
2023-03-11T13:09:37.834Z,1.30
2023-03-11T13:12:43.177Z,1.37
2023-03-11T13:15:34.522Z,0.90
2023-03-11T13:18:09.302Z,1.10
2023-03-11T13:21:03.693Z,1.07
2023-03-11T13:23:37.455Z,1.60
2023-03-11T13:26:25.439Z,1.00
2023-03-11T13:29:15.954Z,1.30
2023-03-11T13:32:03.190Z,1.20
2023-03-11T13:34:46.866Z,1.27
2023-03-11T13:37:30.324Z,1.00
2023-03-11T13:40:16.161Z,1.50
2023-03-11T13:42:52.012Z,1.10
2023-03-11T13:45:32.550Z,1.03
2023-03-11T13:48:09.283Z,1.20
2023-03-11T13:50:45.351Z,1.30
2023-03-11T13:53:26.855Z,1.27
2023-03-11T13:55:58.801Z,1.20
2023-03-11T13:58:32.018Z,1.30
2023-03-11T14:01:04.906Z,1.10
2023-03-11T14:03:44.655Z,1.47
2023-03-11T14:06:19.714Z,1.37
2023-03-11T14:09:01.266Z,0.80
2023-03-11T14:11:33.303Z,1.10
2023-03-11T14:14:05.055Z,1.30
2023-03-11T14:16:45.307Z,1.00
2023-03-11T14:19:19.264Z,1.20
2023-03-11T14:21:52.600Z,1.50
2023-03-11T14:24:28.792Z,1.10
2023-03-11T14:27:03.135Z,0.97
2023-03-11T14:29:37.129Z,0.90
2023-03-11T14:32:27.033Z,1.10
2023-03-11T14:34:59.014Z,1.20
2023-03-11T14:37:35.917Z,0.90
2023-03-11T14:40:28.675Z,1.20
2023-03-11T14:43:02.602Z,0.90
2023-03-11T14:45:37.436Z,1.40
2023-03-11T14:48:13.088Z,0.93
2023-03-11T14:50:50.798Z,0.90
2023-03-11T14:53:25.664Z,1.00
2023-03-11T14:56:01.346Z,1.07
2023-03-11T14:58:35.654Z,1.00
2023-03-11T15:01:12.549Z,1.00
2023-03-11T15:03:48.161Z,0.90
2023-03-11T15:06:21.876Z,0.83
2023-03-11T15:08:55.859Z,1.30
2023-03-11T15:11:29.769Z,0.93
2023-03-11T15:14:20.921Z,1.77
2023-03-11T15:16:53.097Z,0.80
2023-03-11T15:19:42.206Z,1.07
2023-03-11T15:22:29.609Z,0.93
2023-03-11T15:25:02.523Z,1.20
2023-03-11T15:27:39.013Z,1.23
2023-03-11T15:30:24.281Z,0.80
2023-03-11T15:32:56.589Z,0.93
2023-03-11T15:35:29.667Z,1.00
2023-03-11T15:38:21.842Z,1.00
2023-03-11T15:40:59.082Z,1.00
2023-03-11T15:43:35.939Z,0.80
2023-03-11T15:46:08.116Z,1.00
2023-03-11T15:48:40.009Z,0.97
2023-03-11T15:51:21.904Z,1.30
2023-03-11T15:53:53.817Z,0.97
2023-03-11T15:56:28.616Z,1.60
2023-03-11T15:59:03.303Z,1.37
2023-03-11T16:01:34.694Z,1.00
2023-03-11T16:04:06.023Z,1.17
2023-03-11T16:06:37.545Z,0.90
2023-03-11T16:09:09.018Z,1.10
2023-03-11T16:11:41.923Z,0.90
2023-03-11T16:14:21.561Z,0.80
2023-03-11T16:16:54.198Z,1.00
2023-03-11T16:19:25.399Z,1.00
2023-03-11T16:21:56.945Z,0.90
2023-03-11T16:24:29.653Z,0.80
2023-03-11T16:27:02.029Z,1.40
2023-03-11T16:29:36.355Z,1.23
2023-03-11T16:32:07.961Z,0.87
2023-03-11T16:34:40.406Z,1.10
2023-03-11T16:37:12.843Z,1.20
2023-03-11T16:39:45.249Z,1.30
2023-03-11T16:42:18.069Z,1.50
2023-03-11T16:44:51.688Z,1.10
2023-03-11T16:47:23.700Z,1.00
2023-03-11T16:49:55.387Z,1.03
2023-03-11T16:52:27.080Z,0.93
2023-03-11T16:54:59.150Z,1.33
2023-03-11T16:57:30.608Z,1.17
2023-03-11T17:00:06.707Z,1.00
2023-03-11T17:02:38.212Z,1.10
2023-03-11T17:05:11.492Z,1.87
2023-03-11T17:07:43.584Z,1.10
2023-03-11T17:10:15.937Z,1.10
2023-03-11T17:12:47.424Z,1.03
2023-03-11T17:15:21.073Z,1.50
2023-03-11T17:17:52.783Z,1.50
2023-03-11T17:20:24.501Z,1.10
2023-03-11T17:22:55.921Z,1.10
2023-03-11T17:25:27.690Z,0.90
2023-03-11T17:27:59.105Z,1.07
2023-03-11T17:30:37.110Z,1.40
2023-03-11T17:33:08.777Z,1.33
2023-03-11T17:35:40.661Z,1.77
2023-03-11T17:38:12.191Z,1.00
2023-03-11T17:40:43.807Z,1.10
2023-03-11T17:43:15.345Z,1.30
2023-03-11T17:45:49.459Z,1.13
2023-03-11T17:48:22.296Z,1.40
2023-03-11T17:50:54.240Z,1.20
2023-03-11T17:53:26.108Z,1.37
2023-03-11T17:55:57.526Z,1.40
2023-03-11T17:58:29.000Z,1.33
2023-03-11T18:01:02.845Z,1.30
2023-03-11T18:03:34.803Z,0.83
2023-03-11T18:06:09.271Z,1.30
2023-03-11T18:08:41.105Z,1.20
2023-03-11T18:11:13.991Z,0.83
2023-03-11T18:13:48.223Z,1.77
2023-03-11T18:16:24.222Z,1.30
2023-03-11T18:18:56.091Z,1.17
2023-03-11T18:21:28.814Z,1.03
2023-03-11T18:24:02.117Z,1.30
2023-03-11T18:26:34.546Z,1.00
2023-03-11T18:29:06.704Z,1.50
2023-03-11T18:31:41.541Z,1.60
2023-03-11T18:34:15.768Z,1.60
2023-03-11T18:36:47.917Z,1.10
2023-03-11T18:39:20.342Z,1.20
2023-03-11T18:41:54.221Z,1.03
2023-03-11T18:44:25.634Z,1.67
2023-03-11T18:47:02.351Z,1.27
2023-03-11T18:49:34.154Z,1.10
2023-03-11T18:52:06.909Z,1.17
2023-03-11T18:54:38.679Z,1.50
2023-03-11T18:57:10.315Z,1.33
2023-03-11T18:59:43.334Z,1.50
2023-03-11T19:02:16.876Z,0.90
2023-03-11T19:04:48.337Z,1.27
2023-03-11T19:07:19.795Z,1.17
2023-03-11T19:09:52.720Z,1.10
2023-03-11T19:12:24.336Z,1.27
2023-03-11T19:14:56.049Z,1.37
2023-03-11T19:17:29.633Z,1.20
2023-03-11T19:20:00.974Z,1.00
2023-03-11T19:22:32.830Z,1.10
2023-03-11T19:25:06.507Z,1.20
2023-03-11T19:27:40.053Z,1.40
2023-03-11T19:30:15.255Z,1.43
2023-03-11T19:32:49.319Z,1.40
2023-03-11T19:35:22.700Z,1.40
2023-03-11T19:37:57.187Z,1.10
2023-03-11T19:40:31.172Z,1.23
2023-03-11T19:43:04.707Z,1.00
2023-03-11T19:45:36.109Z,1.10
2023-03-11T19:48:13.076Z,1.10
2023-03-11T19:50:44.808Z,1.13
2023-03-11T19:53:17.162Z,1.23
2023-03-11T19:55:48.751Z,1.20
2023-03-11T19:58:21.012Z,1.10
2023-03-11T20:00:52.900Z,1.10
2023-03-11T20:03:27.384Z,0.87
2023-03-11T20:06:00.780Z,1.47
2023-03-11T20:08:32.162Z,0.90
2023-03-11T20:11:05.155Z,1.20
2023-03-11T20:13:38.147Z,1.70
2023-03-11T20:16:11.286Z,1.10
2023-03-11T20:18:44.401Z,0.97
2023-03-11T20:21:16.214Z,1.70
2023-03-11T20:23:47.844Z,1.20
2023-03-11T20:26:21.513Z,1.27
2023-03-11T20:28:52.593Z,1.60
2023-03-11T20:31:25.292Z,1.37
2023-03-11T20:33:58.700Z,0.80
2023-03-11T20:36:34.034Z,1.23
2023-03-11T20:39:09.917Z,1.30
2023-03-11T20:41:43.172Z,1.40
2023-03-11T20:44:16.526Z,0.97
2023-03-11T20:46:48.108Z,1.33
2023-03-11T20:49:20.662Z,1.00
2023-03-11T20:51:52.570Z,1.00
2023-03-11T20:54:23.596Z,1.00
2023-03-11T20:56:55.096Z,1.53
2023-03-11T20:59:26.332Z,1.07
2023-03-11T21:01:57.914Z,1.30
2023-03-11T21:04:30.396Z,1.00
2023-03-11T21:07:02.498Z,1.27
2023-03-11T21:09:34.028Z,1.30
2023-03-11T21:12:05.417Z,1.10
2023-03-11T21:14:36.357Z,1.40
2023-03-11T21:17:07.666Z,1.03
2023-03-11T21:19:40.864Z,1.40
2023-03-11T21:22:12.257Z,1.23
2023-03-11T21:24:43.780Z,0.90
2023-03-11T21:27:15.749Z,1.00
2023-03-11T21:29:47.039Z,1.23
2023-03-11T21:32:18.183Z,1.00
2023-03-11T21:34:52.300Z,1.10
2023-03-11T21:37:23.384Z,1.13
2023-03-11T21:39:54.843Z,1.10
2023-03-11T21:42:26.095Z,0.97
2023-03-11T21:44:57.472Z,1.17
2023-03-11T21:47:28.485Z,0.90
2023-03-11T21:50:00.888Z,1.07
2023-03-11T21:52:32.662Z,0.90
2023-03-11T21:55:04.082Z,0.83
2023-03-11T21:57:34.998Z,0.97
2023-03-11T22:00:11.429Z,1.10
2023-03-11T22:02:42.280Z,0.90
2023-03-11T22:05:15.789Z,0.80
2023-03-11T22:07:46.709Z,0.93
2023-03-11T22:10:18.906Z,0.80
2023-03-11T22:12:50.864Z,1.07
2023-03-11T22:15:22.182Z,0.90
2023-03-11T22:17:53.772Z,1.10
2023-03-11T22:20:27.848Z,1.00
2023-03-11T22:22:59.593Z,0.80
2023-03-11T22:25:31.066Z,1.37
2023-03-11T22:28:02.005Z,1.10
2023-03-11T22:30:33.287Z,0.90
2023-03-11T22:33:04.501Z,1.20
2023-03-11T22:35:38.050Z,1.20
2023-03-11T22:38:10.238Z,1.10
2023-03-11T22:40:40.960Z,1.40
2023-03-11T22:43:12.840Z,0.97
2023-03-11T22:45:43.613Z,1.20
2023-03-11T22:48:14.483Z,1.07
2023-03-11T22:50:48.114Z,1.00
2023-03-11T22:53:22.259Z,1.20
2023-03-11T22:55:53.571Z,1.27
2023-03-11T22:58:24.494Z,1.30
2023-03-11T23:00:55.890Z,1.00
2023-03-11T23:03:27.389Z,0.93
2023-03-11T23:06:01.795Z,1.43
2023-03-11T23:08:32.753Z,1.10
2023-03-11T23:11:06.335Z,1.13
2023-03-11T23:13:37.698Z,1.00
2023-03-11T23:16:11.183Z,1.20
2023-03-11T23:18:43.353Z,1.20
2023-03-11T23:21:26.324Z,1.10
2023-03-11T23:23:58.006Z,1.00
2023-03-11T23:26:29.320Z,0.80
2023-03-11T23:29:02.875Z,1.33
2023-03-11T23:31:34.470Z,1.10
2023-03-11T23:34:07.349Z,1.07
2023-03-11T23:36:40.459Z,0.97
2023-03-11T23:39:11.642Z,1.00
2023-03-11T23:41:43.336Z,0.83
2023-03-11T23:44:15.183Z,0.90
2023-03-11T23:46:46.647Z,1.10
2023-03-11T23:49:18.773Z,1.20
2023-03-11T23:51:51.771Z,1.00
2023-03-11T23:54:23.385Z,1.00
2023-03-11T23:56:54.550Z,1.10
2023-03-11T23:59:25.787Z,0.90
